Terminal Aerodrome Forecast
Issued by NWS

Current Version | Previous Version | Graphics & Text | Print | Product List | Glossary On
Versions: 1 2 3 4 5 6 7 8 9 10 11 12 13 14
000
FTUS41 KPBZ 182320
TAFMGW
TAF
KMGW 182320Z 1900/1924 24005KT P6SM FEW045
     FM190800 23003KT 3SM BR FEW025
     FM191300 24005KT P6SM SCT050
     FM192100 24007KT P6SM VCTS BKN050CB
     FM192300 01003KT P6SM -SHRA VCTS BKN050CB=

USA.gov is the U.S. government's official web portal to all federal, state and local government web resources and services.